createdAt,value
2024-01-12T00:01:11.035Z,-3.51
2024-01-12T00:03:37.963Z,-3.51
2024-01-12T00:06:06.226Z,-3.50
2024-01-12T00:08:34.210Z,-3.46
2024-01-12T00:11:01.074Z,-3.41
2024-01-12T00:13:27.772Z,-3.42
2024-01-12T00:15:54.471Z,-3.43
2024-01-12T00:18:21.452Z,-3.44
2024-01-12T00:20:48.268Z,-3.44
2024-01-12T00:23:15.088Z,-3.43
2024-01-12T00:25:42.332Z,-3.45
2024-01-12T00:28:12.295Z,-3.46
2024-01-12T00:30:40.732Z,-3.47
2024-01-12T00:33:07.637Z,-3.47
2024-01-12T00:35:34.827Z,-3.52
2024-01-12T00:38:01.576Z,-3.47
2024-01-12T00:40:28.324Z,-3.45
2024-01-12T00:42:55.055Z,-3.42
2024-01-12T00:45:21.772Z,-3.44
2024-01-12T00:47:48.817Z,-3.43
2024-01-12T00:50:15.883Z,-3.43
2024-01-12T00:52:42.679Z,-3.41
2024-01-12T00:55:09.780Z,-3.43
2024-01-12T00:57:36.569Z,-3.40
2024-01-12T01:00:05.214Z,-3.35
2024-01-12T01:02:32.175Z,-3.34
2024-01-12T01:04:58.906Z,-3.35
2024-01-12T01:07:25.611Z,-3.36
2024-01-12T01:09:52.342Z,-3.40
2024-01-12T01:12:19.386Z,-3.38
2024-01-12T01:14:46.244Z,-3.38
2024-01-12T01:17:13.710Z,-3.37
2024-01-12T01:19:40.553Z,-3.35
2024-01-12T01:22:07.252Z,-3.35
2024-01-12T01:24:33.936Z,-3.36
2024-01-12T01:27:00.909Z,-3.37
2024-01-12T01:29:27.630Z,-3.37
2024-01-12T01:31:54.394Z,-3.38
2024-01-12T01:34:21.107Z,-3.36
2024-01-12T01:36:47.949Z,-3.35
2024-01-12T01:39:15.492Z,-3.33
2024-01-12T01:41:42.340Z,-3.30
2024-01-12T01:44:09.131Z,-3.32
2024-01-12T01:46:36.469Z,-3.34
2024-01-12T01:49:03.306Z,-3.32
2024-01-12T01:51:30.271Z,-3.29
2024-01-12T01:53:57.026Z,-3.30
2024-01-12T01:56:24.173Z,-3.30
2024-01-12T01:58:51.569Z,-3.32
2024-01-12T02:01:19.279Z,-3.34
2024-01-12T02:03:47.676Z,-3.32
2024-01-12T02:06:14.936Z,-3.31
2024-01-12T02:08:42.329Z,-3.36
2024-01-12T02:11:09.370Z,-3.36
2024-01-12T02:13:36.047Z,-3.37
2024-01-12T02:16:04.780Z,-3.36
2024-01-12T02:18:33.393Z,-3.35
2024-01-12T02:21:00.227Z,-3.32
2024-01-12T02:23:27.097Z,-3.36
2024-01-12T02:25:54.078Z,-3.42
2024-01-12T02:28:20.970Z,-3.44
2024-01-12T02:30:48.111Z,-3.44
2024-01-12T02:33:15.116Z,-3.43
2024-01-12T02:35:41.981Z,-3.42
2024-01-12T02:38:08.719Z,-3.42
2024-01-12T02:40:35.368Z,-3.40
2024-01-12T02:43:03.092Z,-3.36
2024-01-12T02:45:29.904Z,-3.36
2024-01-12T02:47:56.597Z,-3.33
2024-01-12T02:50:24.176Z,-3.30
2024-01-12T02:52:50.938Z,-3.19
2024-01-12T02:55:17.869Z,-3.18
2024-01-12T02:57:44.856Z,-3.17
2024-01-12T03:00:12.251Z,-3.19
2024-01-12T03:02:39.175Z,-3.16
2024-01-12T03:05:06.466Z,-3.18
2024-01-12T03:07:33.256Z,-3.21
2024-01-12T03:10:00.508Z,-3.21
2024-01-12T03:12:27.361Z,-3.23
2024-01-12T03:14:54.161Z,-3.25
2024-01-12T03:17:21.920Z,-3.23
2024-01-12T03:19:48.801Z,-3.19
2024-01-12T03:22:15.473Z,-3.16
2024-01-12T03:24:42.205Z,-3.15
2024-01-12T03:27:09.044Z,-3.10
2024-01-12T03:29:35.955Z,-3.11
2024-01-12T03:32:02.650Z,-3.11
2024-01-12T03:34:29.514Z,-3.11
2024-01-12T03:36:56.193Z,-3.09
2024-01-12T03:39:22.872Z,-3.10
2024-01-12T03:41:49.584Z,-3.08
2024-01-12T03:44:16.476Z,-3.08
2024-01-12T03:46:43.193Z,-3.09
2024-01-12T03:49:10.120Z,-3.08
2024-01-12T03:51:36.865Z,-3.07
2024-01-12T03:54:04.050Z,-3.07
2024-01-12T03:56:30.758Z,-3.02
2024-01-12T03:58:57.749Z,-2.97
2024-01-12T04:01:24.461Z,-2.93
2024-01-12T04:03:51.454Z,-2.90
2024-01-12T04:06:20.330Z,-2.93
2024-01-12T04:08:47.262Z,-2.93
2024-01-12T04:11:23.902Z,-2.92
2024-01-12T04:13:50.987Z,-2.84
2024-01-12T04:16:17.725Z,-2.81
2024-01-12T04:18:44.762Z,-2.85
2024-01-12T04:21:12.077Z,-2.80
2024-01-12T04:23:39.422Z,-2.83
2024-01-12T04:26:09.438Z,-2.83
2024-01-12T04:28:36.296Z,-2.83
2024-01-12T04:31:03.843Z,-2.87
2024-01-12T04:33:31.996Z,-2.83
2024-01-12T04:35:59.679Z,-2.86
2024-01-12T04:38:27.934Z,-2.81
2024-01-12T04:40:55.119Z,-2.77
2024-01-12T04:43:21.898Z,-2.76
2024-01-12T04:45:48.716Z,-2.78
2024-01-12T04:48:15.516Z,-2.78
2024-01-12T04:50:42.354Z,-2.75
2024-01-12T04:53:09.092Z,-2.77
2024-01-12T04:55:35.724Z,-2.78
2024-01-12T04:58:04.247Z,-2.81
2024-01-12T05:00:31.466Z,-2.83
2024-01-12T05:02:58.658Z,-2.82
2024-01-12T05:05:25.474Z,-2.80
2024-01-12T05:07:52.303Z,-2.78
2024-01-12T05:10:19.047Z,-2.73
2024-01-12T05:12:45.862Z,-2.73
2024-01-12T05:15:12.701Z,-2.74
2024-01-12T05:17:39.482Z,-2.73
2024-01-12T05:20:08.607Z,-2.76
2024-01-12T05:22:37.015Z,-2.72
2024-01-12T05:25:07.332Z,-2.66
2024-01-12T05:27:34.207Z,-2.66
2024-01-12T05:30:03.775Z,-2.69
2024-01-12T05:32:31.532Z,-2.69
2024-01-12T05:34:58.767Z,-2.69
2024-01-12T05:37:25.671Z,-2.70
2024-01-12T05:39:52.616Z,-2.67
2024-01-12T05:42:19.287Z,-2.67
2024-01-12T05:44:46.007Z,-2.66
2024-01-12T05:47:13.614Z,-2.61
2024-01-12T05:49:40.418Z,-2.64
2024-01-12T05:52:07.199Z,-2.66
2024-01-12T05:54:33.918Z,-2.65
2024-01-12T05:57:00.953Z,-2.69
2024-01-12T05:59:27.748Z,-2.74
2024-01-12T06:01:55.434Z,-2.72
2024-01-12T06:04:22.191Z,-2.73
2024-01-12T06:06:49.943Z,-2.72
2024-01-12T06:09:16.881Z,-2.71
2024-01-12T06:11:44.712Z,-2.70
2024-01-12T06:14:11.888Z,-2.70
2024-01-12T06:16:39.142Z,-2.66
2024-01-12T06:19:06.156Z,-2.67
2024-01-12T06:21:33.093Z,-2.64
2024-01-12T06:23:59.966Z,-2.63
2024-01-12T06:26:26.995Z,-2.63
2024-01-12T06:28:53.805Z,-2.61
2024-01-12T06:31:20.537Z,-2.61
2024-01-12T06:33:47.288Z,-2.57
2024-01-12T06:36:14.201Z,-2.55
2024-01-12T06:38:40.962Z,-2.59
2024-01-12T06:41:07.852Z,-2.54
2024-01-12T06:43:34.623Z,-2.48
2024-01-12T06:46:01.312Z,-2.45
2024-01-12T06:48:28.194Z,-2.44
2024-01-12T06:50:55.034Z,-2.46
2024-01-12T06:53:21.840Z,-2.50
2024-01-12T06:55:48.743Z,-2.51
2024-01-12T06:58:15.510Z,-2.54
2024-01-12T07:00:42.305Z,-2.55
2024-01-12T07:03:09.408Z,-2.53
2024-01-12T07:05:36.298Z,-2.51
2024-01-12T07:08:03.023Z,-2.48
2024-01-12T07:10:29.728Z,-2.49
2024-01-12T07:12:56.460Z,-2.50
2024-01-12T07:15:23.125Z,-2.54
2024-01-12T07:17:52.769Z,-2.47
2024-01-12T07:20:20.306Z,-2.47
2024-01-12T07:22:47.240Z,-2.47
2024-01-12T07:25:14.019Z,-2.50
2024-01-12T07:27:42.898Z,-2.47
2024-01-12T07:30:10.677Z,-2.44
2024-01-12T07:32:37.694Z,-2.42
2024-01-12T07:35:04.963Z,-2.41
2024-01-12T07:37:32.119Z,-2.37
2024-01-12T07:39:58.843Z,-2.35
2024-01-12T07:42:25.542Z,-2.39
2024-01-12T07:44:53.173Z,-2.41
2024-01-12T07:47:19.928Z,-2.43
2024-01-12T07:49:46.777Z,-2.43
2024-01-12T07:52:17.890Z,-2.42
2024-01-12T07:54:46.196Z,-2.41
2024-01-12T07:57:12.907Z,-2.38
2024-01-12T07:59:39.740Z,-2.40
2024-01-12T08:02:06.468Z,-2.41
2024-01-12T08:04:33.328Z,-2.39
2024-01-12T08:07:00.281Z,-2.38
2024-01-12T08:09:27.090Z,-2.41
2024-01-12T08:11:53.841Z,-2.43
2024-01-12T08:14:20.562Z,-2.44
2024-01-12T08:16:48.421Z,-2.45
2024-01-12T08:19:15.098Z,-2.44
2024-01-12T08:21:49.373Z,-2.38
2024-01-12T08:24:21.997Z,-2.40
2024-01-12T08:26:49.055Z,-2.43
2024-01-12T08:29:15.923Z,-2.42
2024-01-12T08:31:43.610Z,-2.37
2024-01-12T08:34:10.928Z,-2.36
2024-01-12T08:36:37.868Z,-2.31
2024-01-12T08:39:04.987Z,-2.31
2024-01-12T08:41:32.269Z,-2.30
2024-01-12T08:43:59.048Z,-2.29
2024-01-12T08:46:25.760Z,-2.31
2024-01-12T08:48:53.945Z,-2.29
2024-01-12T08:51:21.071Z,-2.30
2024-01-12T08:53:47.812Z,-2.32
2024-01-12T08:56:14.643Z,-2.32
2024-01-12T08:58:41.354Z,-2.26
2024-01-12T09:01:08.124Z,-2.31
2024-01-12T09:03:35.128Z,-2.31
2024-01-12T09:06:02.133Z,-2.30
2024-01-12T09:08:29.531Z,-2.27
2024-01-12T09:10:56.252Z,-2.26
2024-01-12T09:13:23.070Z,-2.26
2024-01-12T09:15:49.691Z,-2.23
2024-01-12T09:18:16.538Z,-2.15
2024-01-12T09:20:43.373Z,-2.15
2024-01-12T09:23:10.304Z,-2.13
2024-01-12T09:25:37.085Z,-2.14
2024-01-12T09:28:04.017Z,-2.10
2024-01-12T09:30:30.810Z,-2.10
2024-01-12T09:32:57.725Z,-2.11
2024-01-12T09:35:24.978Z,-2.09
2024-01-12T09:37:51.775Z,-2.03
2024-01-12T09:40:19.026Z,-1.96
2024-01-12T09:42:50.120Z,-1.96
2024-01-12T09:45:22.518Z,-1.89
2024-01-12T09:47:52.261Z,-1.87
2024-01-12T09:50:23.363Z,-1.86
2024-01-12T09:52:51.129Z,-1.82
2024-01-12T09:55:18.239Z,-1.79
2024-01-12T09:57:48.360Z,-1.83
2024-01-12T10:00:16.235Z,-1.80
2024-01-12T10:02:43.433Z,-1.85
2024-01-12T10:05:10.614Z,-1.93
2024-01-12T10:07:39.086Z,-1.89
2024-01-12T10:10:07.407Z,-1.90
2024-01-12T10:12:34.081Z,-1.92
2024-01-12T10:15:05.336Z,-1.89
2024-01-12T10:17:33.212Z,-2.02
2024-01-12T10:20:00.166Z,-2.03
2024-01-12T10:22:27.942Z,-1.94
2024-01-12T10:25:02.435Z,-1.91
2024-01-12T10:27:29.249Z,-1.88
2024-01-12T10:29:59.616Z,-1.88
2024-01-12T10:32:27.479Z,-1.89
2024-01-12T10:34:54.756Z,-1.92
2024-01-12T10:37:22.272Z,-1.96
2024-01-12T10:39:50.682Z,-1.92
2024-01-12T10:42:18.836Z,-2.00
2024-01-12T10:44:46.671Z,-2.01
2024-01-12T10:47:23.111Z,-1.93
2024-01-12T10:50:09.889Z,-2.04
2024-01-12T10:53:01.016Z,-2.03
2024-01-12T10:55:35.228Z,-2.01
2024-01-12T10:58:03.639Z,-2.03
2024-01-12T11:00:34.304Z,-2.10
2024-01-12T11:03:02.054Z,-2.07
2024-01-12T11:05:29.845Z,-2.10
2024-01-12T11:08:00.653Z,-2.13
2024-01-12T11:10:29.186Z,-2.10
2024-01-12T11:12:59.470Z,-2.07
2024-01-12T11:15:27.808Z,-2.08
2024-01-12T11:17:55.146Z,-2.09
2024-01-12T11:20:23.099Z,-2.09
2024-01-12T11:22:50.954Z,-2.12
2024-01-12T11:25:20.590Z,-2.13
2024-01-12T11:27:52.294Z,-2.13
2024-01-12T11:30:21.555Z,-2.07
2024-01-12T11:32:49.367Z,-2.09
2024-01-12T11:35:22.318Z,-1.97
2024-01-12T11:38:03.812Z,-1.93
2024-01-12T11:40:30.562Z,-1.94
2024-01-12T11:43:00.068Z,-1.88
2024-01-12T11:45:28.127Z,-1.86
2024-01-12T11:47:57.598Z,-1.86
2024-01-12T11:50:28.757Z,-1.96
2024-01-12T11:53:00.026Z,-1.98
2024-01-12T11:55:26.847Z,-1.95
2024-01-12T11:57:55.019Z,-1.88
2024-01-12T12:00:24.363Z,-1.85
2024-01-12T12:02:55.298Z,-1.89
2024-01-12T12:05:24.298Z,-1.90
2024-01-12T12:07:51.269Z,-1.89
2024-01-12T12:10:23.474Z,-1.92
2024-01-12T12:12:56.327Z,-1.91
2024-01-12T12:15:25.898Z,-1.89
2024-01-12T12:17:55.568Z,-1.85
2024-01-12T12:20:24.209Z,-1.83
2024-01-12T12:22:51.086Z,-1.81
2024-01-12T12:25:18.334Z,-1.84
2024-01-12T12:27:47.754Z,-1.88
2024-01-12T12:30:16.867Z,-1.83
2024-01-12T12:32:46.419Z,-1.87
2024-01-12T12:35:21.187Z,-1.84
2024-01-12T12:37:48.892Z,-1.85
2024-01-12T12:40:17.652Z,-1.82
2024-01-12T12:42:46.236Z,-1.80
2024-01-12T12:45:13.744Z,-1.79
2024-01-12T12:47:41.110Z,-1.75
2024-01-12T12:50:12.716Z,-1.76
2024-01-12T12:52:40.984Z,-1.75
2024-01-12T12:55:08.651Z,-1.71
2024-01-12T12:57:36.030Z,-1.74
2024-01-12T13:00:05.644Z,-1.80
2024-01-12T13:02:35.243Z,-1.80
2024-01-12T13:05:03.506Z,-1.80
2024-01-12T13:07:30.625Z,-1.80
2024-01-12T13:09:59.192Z,-1.84
2024-01-12T13:12:27.857Z,-1.82
2024-01-12T13:14:54.737Z,-1.84
2024-01-12T13:17:22.565Z,-1.82
2024-01-12T13:19:49.598Z,-1.86
2024-01-12T13:22:16.625Z,-1.83
2024-01-12T13:24:43.288Z,-1.84
2024-01-12T13:27:10.534Z,-1.83
2024-01-12T13:29:37.367Z,-1.86
2024-01-12T13:32:04.487Z,-1.81
2024-01-12T13:34:31.937Z,-1.82
2024-01-12T13:37:02.931Z,-1.83
2024-01-12T13:39:30.156Z,-1.81
2024-01-12T13:41:57.418Z,-1.81
2024-01-12T13:44:24.316Z,-1.84
2024-01-12T13:46:51.042Z,-1.85
2024-01-12T13:49:18.016Z,-1.81
2024-01-12T13:51:45.789Z,-1.83
2024-01-12T13:54:15.823Z,-1.87
2024-01-12T13:56:42.977Z,-1.89
2024-01-12T13:59:10.987Z,-1.87
2024-01-12T14:01:38.996Z,-1.80
2024-01-12T14:04:06.964Z,-1.81
2024-01-12T14:06:37.410Z,-1.82
2024-01-12T14:09:06.421Z,-1.79
2024-01-12T14:11:36.648Z,-1.74
2024-01-12T14:14:03.971Z,-1.76
2024-01-12T14:16:30.968Z,-1.77
2024-01-12T14:18:57.892Z,-1.75
2024-01-12T14:21:24.673Z,-1.77
2024-01-12T14:23:52.052Z,-1.76
2024-01-12T14:26:18.871Z,-1.75
2024-01-12T14:28:46.702Z,-1.74
2024-01-12T14:31:13.625Z,-1.73
2024-01-12T14:33:40.627Z,-1.74
2024-01-12T14:36:08.083Z,-1.71
2024-01-12T14:38:35.316Z,-1.72
2024-01-12T14:41:02.283Z,-1.73
2024-01-12T14:43:29.142Z,-1.74
2024-01-12T14:45:56.767Z,-1.77
2024-01-12T14:48:24.287Z,-1.76
2024-01-12T14:50:52.941Z,-1.78
2024-01-12T14:53:19.878Z,-1.78
2024-01-12T14:55:46.712Z,-1.76
2024-01-12T14:58:13.550Z,-1.78
2024-01-12T15:00:40.603Z,-1.76
2024-01-12T15:03:07.369Z,-1.76
2024-01-12T15:05:35.600Z,-1.77
2024-01-12T15:08:03.631Z,-1.76
2024-01-12T15:10:30.538Z,-1.78
2024-01-12T15:12:57.368Z,-1.78
2024-01-12T15:15:24.149Z,-1.79
2024-01-12T15:17:51.017Z,-1.77
2024-01-12T15:20:17.797Z,-1.80
2024-01-12T15:22:44.540Z,-1.79
2024-01-12T15:25:11.184Z,-1.77
2024-01-12T15:27:37.829Z,-1.77
2024-01-12T15:30:08.314Z,-1.81
2024-01-12T15:32:35.398Z,-1.82
2024-01-12T15:35:02.609Z,-1.83
2024-01-12T15:37:29.380Z,-1.82
2024-01-12T15:39:56.848Z,-1.80
2024-01-12T15:42:32.335Z,-1.84
2024-01-12T15:45:02.850Z,-1.84
2024-01-12T15:47:29.675Z,-1.84
2024-01-12T15:49:56.459Z,-1.81
2024-01-12T15:52:23.245Z,-1.73
2024-01-12T15:54:50.210Z,-1.79
2024-01-12T15:57:16.964Z,-1.83
2024-01-12T15:59:43.797Z,-1.87
2024-01-12T16:02:10.701Z,-1.89
2024-01-12T16:04:38.548Z,-1.89
2024-01-12T16:07:05.812Z,-1.90
2024-01-12T16:09:36.853Z,-1.92
2024-01-12T16:12:04.382Z,-1.90
2024-01-12T16:14:39.327Z,-1.88
2024-01-12T16:17:06.413Z,-1.86
2024-01-12T16:19:33.379Z,-1.88
2024-01-12T16:22:01.230Z,-1.88
2024-01-12T16:24:28.963Z,-1.90
2024-01-12T16:26:55.658Z,-1.91
2024-01-12T16:29:22.592Z,-1.88
2024-01-12T16:31:49.241Z,-1.87
2024-01-12T16:34:16.150Z,-1.88
2024-01-12T16:36:43.085Z,-1.87
2024-01-12T16:39:09.848Z,-1.88
2024-01-12T16:41:36.670Z,-1.88
2024-01-12T16:44:03.500Z,-1.87
2024-01-12T16:46:30.197Z,-1.87
2024-01-12T16:48:57.262Z,-1.85
2024-01-12T16:51:24.052Z,-1.85
2024-01-12T16:53:50.778Z,-1.86
2024-01-12T16:56:17.568Z,-1.86
2024-01-12T16:58:44.333Z,-1.85
2024-01-12T17:01:11.118Z,-1.83
2024-01-12T17:03:38.078Z,-1.83
2024-01-12T17:06:05.001Z,-1.82
2024-01-12T17:08:31.858Z,-1.80
2024-01-12T17:10:58.585Z,-1.80
2024-01-12T17:13:25.198Z,-1.82
2024-01-12T17:15:51.894Z,-1.82
2024-01-12T17:18:22.764Z,-1.84
2024-01-12T17:20:55.773Z,-1.86
2024-01-12T17:23:23.090Z,-1.84
2024-01-12T17:25:49.813Z,-1.86
2024-01-12T17:28:16.645Z,-1.85
2024-01-12T17:30:44.735Z,-1.84
2024-01-12T17:33:12.020Z,-1.81
2024-01-12T17:35:39.060Z,-1.82
2024-01-12T17:38:07.167Z,-1.83
2024-01-12T17:40:33.923Z,-1.84
2024-01-12T17:43:00.643Z,-1.84
2024-01-12T17:45:28.626Z,-1.81
2024-01-12T17:47:56.677Z,-1.80
2024-01-12T17:50:23.814Z,-1.78
2024-01-12T17:52:50.527Z,-1.75
2024-01-12T17:55:17.245Z,-1.75
2024-01-12T17:57:44.007Z,-1.77
2024-01-12T18:00:12.047Z,-1.76
2024-01-12T18:02:39.557Z,-1.73
2024-01-12T18:05:06.573Z,-1.73
2024-01-12T18:07:33.279Z,-1.70
2024-01-12T18:09:59.894Z,-1.70
2024-01-12T18:12:27.546Z,-1.66
2024-01-12T18:14:54.226Z,-1.65
2024-01-12T18:17:20.935Z,-1.67
2024-01-12T18:19:48.846Z,-1.65
2024-01-12T18:22:15.738Z,-1.65
2024-01-12T18:24:47.491Z,-1.66
2024-01-12T18:27:15.012Z,-1.66
2024-01-12T18:29:41.783Z,-1.68
2024-01-12T18:32:08.708Z,-1.68
2024-01-12T18:34:35.758Z,-1.68
2024-01-12T18:37:02.874Z,-1.71
2024-01-12T18:39:29.610Z,-1.71
2024-01-12T18:41:56.393Z,-1.69
2024-01-12T18:44:23.164Z,-1.68
2024-01-12T18:46:49.836Z,-1.66
2024-01-12T18:49:16.613Z,-1.66
2024-01-12T18:51:43.562Z,-1.65
2024-01-12T18:54:10.831Z,-1.62
2024-01-12T18:56:37.680Z,-1.64
2024-01-12T18:59:04.434Z,-1.64
2024-01-12T19:01:34.168Z,-1.62
2024-01-12T19:04:03.331Z,-1.62
2024-01-12T19:06:29.998Z,-1.60
2024-01-12T19:08:56.745Z,-1.60
2024-01-12T19:11:23.434Z,-1.61
2024-01-12T19:13:52.444Z,-1.56
2024-01-12T19:16:19.133Z,-1.58
2024-01-12T19:18:45.835Z,-1.62
2024-01-12T19:21:12.597Z,-1.61
2024-01-12T19:23:39.369Z,-1.60
2024-01-12T19:26:08.134Z,-1.59
2024-01-12T19:28:34.831Z,-1.57
2024-01-12T19:31:01.588Z,-1.57
2024-01-12T19:33:28.529Z,-1.57
2024-01-12T19:35:55.301Z,-1.55
2024-01-12T19:38:22.646Z,-1.54
2024-01-12T19:40:49.260Z,-1.53
2024-01-12T19:43:15.936Z,-1.53
2024-01-12T19:45:42.555Z,-1.50
2024-01-12T19:48:09.418Z,-1.47
2024-01-12T19:50:36.250Z,-1.48
2024-01-12T19:53:02.962Z,-1.50
2024-01-12T19:55:29.634Z,-1.49
2024-01-12T19:57:56.834Z,-1.49
2024-01-12T20:00:23.679Z,-1.51
2024-01-12T20:02:50.528Z,-1.51
2024-01-12T20:05:17.193Z,-1.50
2024-01-12T20:07:43.826Z,-1.51
2024-01-12T20:10:10.548Z,-1.48
2024-01-12T20:12:37.258Z,-1.49
2024-01-12T20:15:04.555Z,-1.50
2024-01-12T20:17:31.690Z,-1.51
2024-01-12T20:19:58.696Z,-1.51
2024-01-12T20:22:25.417Z,-1.51
2024-01-12T20:24:52.985Z,-1.51
2024-01-12T20:27:19.796Z,-1.48
2024-01-12T20:29:46.721Z,-1.49
2024-01-12T20:32:13.435Z,-1.47
2024-01-12T20:34:40.410Z,-1.48
2024-01-12T20:37:09.105Z,-1.49
2024-01-12T20:39:35.761Z,-1.47
2024-01-12T20:42:02.627Z,-1.46
2024-01-12T20:44:29.397Z,-1.45
2024-01-12T20:46:56.119Z,-1.45
2024-01-12T20:49:22.939Z,-1.45
2024-01-12T20:51:52.414Z,-1.44
2024-01-12T20:54:19.301Z,-1.43
2024-01-12T20:56:46.021Z,-1.44
2024-01-12T20:59:14.885Z,-1.46
2024-01-12T21:01:41.743Z,-1.43
2024-01-12T21:04:08.620Z,-1.43
2024-01-12T21:06:35.437Z,-1.42
2024-01-12T21:09:02.257Z,-1.42
2024-01-12T21:11:29.227Z,-1.44
2024-01-12T21:13:55.967Z,-1.42
2024-01-12T21:16:22.677Z,-1.43
2024-01-12T21:18:49.402Z,-1.41
2024-01-12T21:21:16.315Z,-1.40
2024-01-12T21:23:43.240Z,-1.38
2024-01-12T21:26:09.888Z,-1.41
2024-01-12T21:28:36.658Z,-1.39
2024-01-12T21:31:03.760Z,-1.37
2024-01-12T21:33:30.664Z,-1.40
2024-01-12T21:35:57.513Z,-1.37
2024-01-12T21:38:24.287Z,-1.37
2024-01-12T21:40:51.069Z,-1.37
2024-01-12T21:43:17.907Z,-1.36
2024-01-12T21:45:45.217Z,-1.36
2024-01-12T21:48:12.393Z,-1.33
2024-01-12T21:50:41.115Z,-1.33
2024-01-12T21:53:08.276Z,-1.34
2024-01-12T21:55:35.003Z,-1.33
2024-01-12T21:58:06.165Z,-1.34
2024-01-12T22:00:34.558Z,-1.33
2024-01-12T22:03:01.924Z,-1.33
2024-01-12T22:05:28.871Z,-1.35
2024-01-12T22:07:55.610Z,-1.36
2024-01-12T22:10:22.295Z,-1.36
2024-01-12T22:12:50.750Z,-1.36
2024-01-12T22:15:17.651Z,-1.34
2024-01-12T22:17:44.493Z,-1.34
2024-01-12T22:20:14.269Z,-1.33
2024-01-12T22:22:41.181Z,-1.37
2024-01-12T22:25:08.406Z,-1.38
2024-01-12T22:27:37.096Z,-1.38
2024-01-12T22:30:04.295Z,-1.35
2024-01-12T22:32:31.370Z,-1.34
2024-01-12T22:34:58.140Z,-1.35
2024-01-12T22:37:24.916Z,-1.36
2024-01-12T22:39:51.814Z,-1.35
2024-01-12T22:42:18.530Z,-1.37
2024-01-12T22:44:45.287Z,-1.35
2024-01-12T22:47:12.060Z,-1.35
2024-01-12T22:49:39.008Z,-1.37
2024-01-12T22:52:06.772Z,-1.37
2024-01-12T22:54:34.029Z,-1.36
2024-01-12T22:57:01.453Z,-1.38
2024-01-12T22:59:28.305Z,-1.37
2024-01-12T23:01:55.072Z,-1.39
2024-01-12T23:04:22.001Z,-1.40
2024-01-12T23:06:48.846Z,-1.37
2024-01-12T23:09:15.672Z,-1.37
2024-01-12T23:11:42.449Z,-1.38
2024-01-12T23:14:09.195Z,-1.38
2024-01-12T23:16:35.915Z,-1.39
2024-01-12T23:19:03.146Z,-1.39
2024-01-12T23:21:30.242Z,-1.37
2024-01-12T23:23:56.900Z,-1.38
2024-01-12T23:26:25.739Z,-1.34
2024-01-12T23:28:52.456Z,-1.33
2024-01-12T23:31:20.521Z,-1.34
2024-01-12T23:33:47.700Z,-1.33
2024-01-12T23:36:14.822Z,-1.30
2024-01-12T23:38:41.712Z,-1.30
2024-01-12T23:41:08.504Z,-1.30
2024-01-12T23:43:35.110Z,-1.26
2024-01-12T23:46:01.880Z,-1.27
2024-01-12T23:48:34.614Z,-1.27
2024-01-12T23:51:05.958Z,-1.27
2024-01-12T23:53:32.950Z,-1.29
2024-01-12T23:55:59.745Z,-1.27
2024-01-12T23:58:30.620Z,-1.30
